Flight Track Log - Related Links

Times and Time Zones

All times are in EDT time to prevent confusion due to time zone crossing. See the ACA620 flight status page for this flight to view local times or setup timezone preferences in your user account.

Time Position Orientation Groundspeed Altitude Reporting Facility
EDT Latitude Longitude Course Direction KTS MPH feet Rate Location/Type
Tue 07:29:16 PM 43.7167 -79.5167 79° East 240 276 3,500  Level Toronto Center
Tue 07:30:16 PM 43.7500 -79.4333 61° Northeast 280 322 6,900 2,652 Climbing Toronto Center
Tue 07:31:00 PM 43.7929 -79.1308 72° East  Level FlightAware Approximate
Tue 07:32:00 PM 43.8308 -78.9698 73° East  Level FlightAware Approximate
Tue 07:33:00 PM 43.8695 -78.8056 71° East  Level FlightAware Approximate
Tue 07:34:00 PM 43.8908 -78.6474 79° East  Level Estimated
Tue 07:35:52 PM 43.7230 -78.6130 61° Northeast 435 501 21,000  Level FlightAware ADS-B
Tue 07:36:32 PM 43.7540 -78.5120 67° East 433 498 21,000  Level FlightAware ADS-B
Tue 07:37:17 PM 43.7890 -78.3950 67° East 433 498 21,000  Level FlightAware ADS-B
Tue 07:37:57 PM 43.8190 -78.2980 67° East 433 498 21,000  Level FlightAware ADS-B
Tue 07:38:37 PM 43.8510 -78.1930 67° East 435 501 21,000  Level FlightAware ADS-B
Tue 07:39:17 PM 43.8830 -78.0890 67° East 436 502 21,000  Level FlightAware ADS-B
Tue 07:40:02 PM 43.9180 -77.9720 67° East 440 506 21,000  Level FlightAware ADS-B
Tue 07:40:47 PM 43.9530 -77.8540 68° East 449 517 21,000  Level FlightAware ADS-B
Tue 07:41:27 PM 43.9850 -77.7470 67° East 446 513 21,000  Level FlightAware ADS-B
Tue 07:42:07 PM 44.0160 -77.6410 68° East 448 516 21,000  Level FlightAware ADS-B
Tue 07:42:47 PM 44.0470 -77.5390 67° East 453 521 21,000  Level FlightAware ADS-B
Tue 07:43:32 PM 44.0840 -77.4120 68° East 451 519 21,000  Level FlightAware ADS-B
Tue 07:44:17 PM 44.1220 -77.2960 65° Northeast 455 524 21,000  Level FlightAware ADS-B
Tue 07:44:52 PM 44.1540 -77.2010 65° Northeast 453 521 21,000  Level FlightAware ADS-B
Tue 07:45:37 PM 44.1930 -77.0850 65° Northeast 454 522 21,000  Level FlightAware ADS-B
Tue 07:46:22 PM 44.2340 -76.9600 65° Northeast 452 520 21,000  Level FlightAware ADS-B
Tue 07:47:02 PM 44.2670 -76.8550 66° East 440 506 21,000  Level FlightAware ADS-B
Tue 07:47:42 PM 44.3010 -76.7520 65° Northeast 438 504 21,000  Level FlightAware ADS-B
Tue 07:48:27 PM 44.3380 -76.6360 66° East 440 506 21,000  Level FlightAware ADS-B
Tue 07:49:07 PM 44.3720 -76.5320 65° Northeast 440 506 21,000  Level FlightAware ADS-B
Tue 07:49:52 PM 44.4090 -76.4160 66° East 440 506 21,000  Level FlightAware ADS-B
Tue 07:50:32 PM 44.4420 -76.3120 66° East 441 507 21,000  Level FlightAware ADS-B
Tue 07:51:12 PM 44.4750 -76.2080 66° East 439 505 21,000  Level FlightAware ADS-B
Tue 07:51:57 PM 44.5120 -76.0900 66° East 439 505 21,000  Level FlightAware ADS-B
Tue 07:52:37 PM 44.5450 -75.9840 66° East 453 521 21,000  Level FlightAware ADS-B
Tue 07:53:17 PM 44.5790 -75.8750 66° East 454 522 21,000  Level FlightAware ADS-B
Tue 07:54:02 PM 44.6170 -75.7540 66° East 455 524 21,000  Level FlightAware ADS-B
Tue 07:54:42 PM 44.6490 -75.6510 66° East 452 520 21,000  Level FlightAware ADS-B
Tue 07:55:27 PM 44.6840 -75.5230 69° East 447 514 21,000  Level FlightAware ADS-B
Tue 07:56:07 PM 44.7120 -75.4200 69° East 447 514 21,000  Level FlightAware ADS-B
Tue 07:56:42 PM 44.7370 -75.3270 69° East 449 517 21,000  Level FlightAware ADS-B
Tue 07:57:32 PM 44.7790 -75.1720 69° East 449 517 21,000  Level FlightAware ADS-B
Tue 07:58:12 PM 44.8080 -75.0640 69° East 450 518 21,000  Level FlightAware ADS-B
Tue 07:58:57 PM 44.8400 -74.9420 70° East 449 517 21,000  Level FlightAware ADS-B
Tue 07:59:37 PM 44.8700 -74.8310 69° East 450 518 21,000  Level FlightAware ADS-B
Tue 08:00:17 PM 44.8970 -74.7270 70° East 449 517 21,000  Level FlightAware ADS-B
Tue 08:01:02 PM 44.9270 -74.6130 70° East 450 518 21,000  Level FlightAware ADS-B
Tue 08:01:42 PM 44.9590 -74.4920 69° East 451 519 21,000  Level FlightAware ADS-B
Tue 08:02:27 PM 44.9890 -74.3750 70° East 451 519 21,000  Level FlightAware ADS-B
Tue 08:03:07 PM 45.0140 -74.2550 74° East 449 517 21,000  Level FlightAware ADS-B
Tue 08:03:47 PM 45.0350 -74.1410 75° East 447 514 21,000  Level FlightAware ADS-B
Tue 08:04:32 PM 45.0570 -74.0200 76° East 446 513 21,000  Level FlightAware ADS-B
Tue 08:05:12 PM 45.0770 -73.9030 76° East 445 512 21,000  Level FlightAware ADS-B
Tue 08:05:52 PM 45.0980 -73.7880 75° East 445 512 21,000  Level FlightAware ADS-B
Tue 08:06:37 PM 45.1200 -73.6620 76° East 444 511 21,000  Level FlightAware ADS-B
Tue 08:07:17 PM 45.1390 -73.5520 76° East 442 509 21,000  Level FlightAware ADS-B
Tue 08:08:02 PM 45.1610 -73.4240 76° East 442 509 21,000  Level FlightAware ADS-B
Tue 08:08:42 PM 45.1810 -73.3100 76° East 443 510 21,000  Level FlightAware ADS-B
Tue 08:09:27 PM 45.2020 -73.1850 77° East 443 510 21,000  Level FlightAware ADS-B
Tue 08:10:07 PM 45.2210 -73.0740 76° East 442 509 21,000  Level FlightAware ADS-B
Tue 08:10:47 PM 45.2410 -72.9590 76° East 440 506 21,000  Level FlightAware ADS-B
Tue 08:11:32 PM 45.2620 -72.8330 77° East 440 506 21,000  Level FlightAware ADS-B
Tue 08:12:12 PM 45.2810 -72.7200 77° East 439 505 21,000  Level FlightAware ADS-B
Tue 08:12:57 PM 45.2980 -72.5980 79° East 440 506 21,000  Level FlightAware ADS-B
Tue 08:13:37 PM 45.3070 -72.4740 84° East 440 506 21,000  Level FlightAware ADS-B
Tue 08:14:17 PM 45.3130 -72.3580 86° East 440 506 21,000  Level FlightAware ADS-B
Tue 08:15:17 PM 45.3210 -72.1930 86° East 444 511 21,000  Level FlightAware ADS-B
Tue 08:15:57 PM 45.3280 -72.0770 85° East 446 513 21,000  Level FlightAware ADS-B
Tue 08:16:42 PM 45.3340 -71.9520 86° East 448 516 21,000  Level FlightAware ADS-B
Tue 08:17:22 PM 45.3400 -71.8290 86° East 448 516 21,000  Level FlightAware ADS-B
Tue 08:18:07 PM 45.3470 -71.6900 86° East 450 518 21,000  Level FlightAware ADS-B
Tue 08:18:47 PM 45.3520 -71.5780 86° East 451 519 21,000  Level FlightAware ADS-B
Tue 08:19:42 PM 45.3590 -71.4290 86° East 451 519 21,000  Level FlightAware ADS-B
Tue 08:20:17 PM 45.3640 -71.3110 87° East 452 520 21,000  Level FlightAware ADS-B
Tue 08:21:02 PM 45.3700 -71.1950 86° East 452 520 21,000  Level FlightAware ADS-B
Tue 08:21:47 PM 45.3750 -71.0440 87° East 450 518 21,000  Level FlightAware ADS-B
Tue 08:22:27 PM 45.3710 -70.9270 93° East 452 520 21,000  Level FlightAware ADS-B
Tue 08:23:12 PM 45.3660 -70.8010 93° East 452 520 21,000  Level FlightAware ADS-B
Tue 08:23:52 PM 45.3370 -71.8970 268° West 21,000  Level FlightAware ADS-B
Tue 08:24:37 PM 45.3510 -70.5440 89° East 451 519 21,000  Level FlightAware ADS-B
Tue 08:25:12 PM 45.3450 -70.4480 95° East 450 518 21,000  Level FlightAware ADS-B
Tue 08:25:57 PM 45.3390 -70.3250 94° East 450 518 21,000  Level FlightAware ADS-B
Tue 08:26:57 PM 45.3280 -70.1400 95° East 450 518 21,000  Level FlightAware ADS-B
Tue 08:27:37 PM 45.3210 -70.0160 95° East 449 517 21,000  Level FlightAware ADS-B
Tue 08:28:17 PM 45.3140 -69.9060 95° East 449 517 21,000  Level FlightAware ADS-B
Tue 08:29:02 PM 45.3060 -69.7640 95° East 451 519 21,000  Level FlightAware ADS-B
Tue 08:29:47 PM 45.2980 -69.6440 95° East 451 519 21,000  Level FlightAware ADS-B
Tue 08:30:27 PM 45.2920 -69.5430 95° East 451 519 21,000  Level FlightAware ADS-B
Tue 08:31:12 PM 45.2820 -69.3810 95° East 450 518 21,000  Level FlightAware ADS-B
Tue 08:31:47 PM 45.2750 -69.2780 95° East 450 518 21,000  Level FlightAware ADS-B
Tue 08:32:32 PM 45.2660 -69.1390 95° East 451 519 21,000  Level FlightAware ADS-B
Tue 08:33:12 PM 45.2580 -69.0220 96° East 451 519 21,000  Level FlightAware ADS-B
Tue 08:33:57 PM 45.2490 -68.8900 95° East 453 521 21,000  Level FlightAware ADS-B
Tue 08:34:42 PM 45.2390 -68.7540 96° East 453 521 21,000  Level FlightAware ADS-B
Tue 08:35:22 PM 45.2310 -68.6350 95° East 454 522 21,000  Level FlightAware ADS-B
Tue 08:36:02 PM 45.2220 -68.5170 96° East 453 521 21,000  Level FlightAware ADS-B
Tue 08:36:42 PM 45.2140 -68.4040 96° East 452 520 21,000  Level FlightAware ADS-B
Tue 08:37:27 PM 45.2040 -68.2680 96° East 451 519 21,000  Level FlightAware ADS-B
Tue 08:38:12 PM 45.1940 -68.1380 96° East 449 517 21,000  Level FlightAware ADS-B
Tue 08:38:52 PM 45.1850 -68.0220 96° East 448 516 21,000  Level FlightAware ADS-B
Tue 08:39:32 PM 45.1770 -67.9090 96° East 447 514 21,000  Level FlightAware ADS-B
Tue 08:40:17 PM 45.1660 -67.7790 97° East 447 514 21,000  Level FlightAware ADS-B
Tue 08:40:57 PM 45.1570 -67.6590 96° East 446 513 21,000  Level FlightAware ADS-B
Tue 08:41:32 PM 45.1490 -67.5630 97° East 446 513 21,000  Level FlightAware ADS-B
Tue 08:42:22 PM 45.1370 -67.4140 96° East 445 512 21,000  Level FlightAware ADS-B
Tue 08:43:02 PM 45.1280 -67.2990 96° East 446 513 21,000  Level FlightAware ADS-B
Tue 08:43:47 PM 45.1170 -67.1670 97° East 445 512 21,000  Level FlightAware ADS-B
Tue 08:44:27 PM 45.1070 -67.0540 97° East 445 512 21,000  Level FlightAware ADS-B
Tue 08:45:12 PM 45.0960 -66.9250 97° East 444 511 21,000  Level FlightAware ADS-B
Tue 08:45:52 PM 45.0860 -66.8080 97° East 444 511 21,000  Level FlightAware ADS-B
Tue 08:46:32 PM 45.0750 -66.6930 98° East 445 512 21,000  Level FlightAware ADS-B
Tue 08:47:17 PM 45.0640 -66.5610 97° East 446 513 21,000  Level FlightAware ADS-B
Tue 08:47:57 PM 45.0530 -66.4460 98° East 447 514 21,000  Level FlightAware ADS-B
Tue 08:48:42 PM 45.0410 -66.3140 97° East 448 516 21,000  Level FlightAware ADS-B
Tue 08:49:22 PM 45.0310 -66.2000 97° East 449 517 21,000  Level FlightAware ADS-B
Tue 08:50:02 PM 45.0200 -66.0850 98° East 451 519 21,000  Level FlightAware ADS-B
Tue 08:50:47 PM 45.0070 -65.9510 98° East 452 520 21,000  Level FlightAware ADS-B
Tue 08:51:27 PM 44.9960 -65.8320 97° East 452 520 21,000  Level FlightAware ADS-B
Tue 08:52:07 PM 44.9840 -65.7130 98° East 452 520 21,000  Level FlightAware ADS-B
Tue 08:52:52 PM 44.9710 -65.5830 98° East 451 519 21,000  Level FlightAware ADS-B
Tue 08:53:32 PM 44.9600 -65.4670 98° East 451 519 21,000 -71 Level FlightAware ADS-B
Tue 08:54:17 PM 44.9470 -65.3350 98° East 445 512 20,900 -320 Descending FlightAware ADS-B
Tue 08:54:47 PM 44.9390 -65.2590 98° East 432 497 20,600 -975 Descending FlightAware ADS-B
Tue 08:55:37 PM 44.9250 -65.1110 98° East 413 475 19,600 -1,642 Descending FlightAware ADS-B
Tue 08:56:22 PM 44.9240 -64.9910 91° East 411 473 18,000 -1,694 Descending FlightAware ADS-B
Tue 08:57:02 PM 44.9240 -64.8850 90° East 392 451 17,200 -1,765 Descending FlightAware ADS-B
Tue 08:57:47 PM 44.9250 -64.7730 89° East 383 441 15,500 -2,612 Descending FlightAware ADS-B
Tue 08:58:27 PM 44.9260 -64.6740 89° East 387 445 13,500 -2,400 Descending FlightAware ADS-B
Tue 08:59:07 PM 44.9280 -64.5790 88° East 378 435 12,300 -1,341 Descending FlightAware ADS-B
Tue 08:59:52 PM 44.9410 -64.4670 81° East 347 399 11,600 -1,059 Descending FlightAware ADS-B
Tue 09:00:32 PM 44.9490 -64.3830 82° East 317 365 10,800 -1,457 Descending FlightAware ADS-B
Tue 09:01:02 PM 44.9540 -64.3240 83° East 309 356 9,900 -982 Descending FlightAware ADS-B
Tue 09:01:27 PM 44.9580 -64.2800 83° East 309 356 9,900  Level FlightAware ADS-B
Tue 09:01:57 PM 44.9630 -64.2280 82° East 309 356 9,900  Level FlightAware ADS-B
Tue 09:02:17 PM 44.9660 -64.1940 83° East 309 356 9,900  Level FlightAware ADS-B
Tue 09:02:47 PM 44.9700 -64.1430 84° East 309 356 9,900 -2,351 Level FlightAware ADS-B
Tue 09:03:31 PM 44.9667 -64.0167 84° East 290 334 7,000 -1,294 Descending Moncton Center
Tue 09:09:12 PM 44.9400 -63.6100 84° East 117 135 1,600 -878 Descending FlightAware ADS-B
Tue 09:09:47 PM 44.9310 -63.5920 125° Southeast 110 127 1,500 -171 Descending FlightAware ADS-B

Login

Don't have an account? Register now (free) for customized features, flight alerts, and more!